Time;durP1;ratioP1;P1;durP2;ratioP2;P2;SDS_P1;SDS_P2;PMS_P1;PMS_P2;Temp;Humidity;BMP_temperature;BMP_pressure;BME280_temperature;BME280_humidity;BME280_pressure;Samples;Min_cycle;Max_cycle;Signal;HPM_P1;HPM_P2
2023/12/18 00:02:26;;;;;;;2.00;1.52;;;8.10;99.90;;;;;;5063756;28;20465;-48
2023/12/18 00:04:54;;;;;;;2.60;1.50;;;8.10;99.90;;;;;;5059967;28;20520;-49
2023/12/18 00:07:24;;;;;;;2.20;1.38;;;8.10;99.90;;;;;;5053768;28;20601;-47
2023/12/18 00:09:54;;;;;;;1.90;1.70;;;8.10;99.90;;;;;;5051738;28;20273;-48
2023/12/18 00:12:22;;;;;;;1.97;1.77;;;8.10;99.90;;;;;;5047974;28;20371;-49
2023/12/18 00:14:50;;;;;;;1.73;1.30;;;8.10;99.90;;;;;;5049516;28;20944;-46
2023/12/18 00:17:18;;;;;;;1.90;1.30;;;8.10;99.90;;;;;;5064646;28;20210;-49
2023/12/18 00:19:46;;;;;;;1.83;1.35;;;8.10;99.90;;;;;;5051890;28;20216;-49
2023/12/18 00:22:16;;;;;;;2.58;1.67;;;8.10;99.90;;;;;;5042518;28;20219;-46
2023/12/18 00:24:46;;;;;;;1.60;1.35;;;8.10;99.90;;;;;;5057014;28;20191;-49
2023/12/18 00:27:14;;;;;;;2.20;1.60;;;8.10;99.90;;;;;;5054709;28;20224;-50
2023/12/18 00:29:43;;;;;;;2.07;1.60;;;8.10;99.90;;;;;;5048272;28;20466;-50
2023/12/18 00:32:11;;;;;;;2.60;1.77;;;8.10;99.90;;;;;;5043065;28;20579;-48
2023/12/18 00:34:40;;;;;;;1.80;1.50;;;8.10;99.90;;;;;;5044981;28;20211;-49
2023/12/18 00:37:09;;;;;;;2.80;1.73;;;8.10;99.90;;;;;;5039030;28;20663;-46
2023/12/18 00:39:37;;;;;;;2.38;1.58;;;8.10;99.90;;;;;;5032012;28;20455;-47
2023/12/18 00:42:07;;;;;;;2.30;1.55;;;8.10;99.90;;;;;;5026502;28;20212;-48
2023/12/18 00:44:35;;;;;;;2.17;1.55;;;8.10;99.90;;;;;;5036946;28;20197;-47
2023/12/18 00:47:03;;;;;;;4.57;1.90;;;8.10;99.90;;;;;;5038174;28;20328;-47
2023/12/18 00:49:32;;;;;;;1.58;1.15;;;8.10;99.90;;;;;;5047263;28;20459;-46
2023/12/18 00:52:01;;;;;;;2.30;1.75;;;8.00;99.90;;;;;;5036164;28;20230;-47
2023/12/18 00:54:29;;;;;;;2.13;1.40;;;8.00;99.90;;;;;;5039976;28;20288;-47
2023/12/18 00:56:57;;;;;;;2.00;1.30;;;8.10;99.90;;;;;;5034769;28;20225;-50
2023/12/18 00:59:26;;;;;;;2.77;1.73;;;8.00;99.90;;;;;;5043558;28;20239;-48
2023/12/18 01:01:54;;;;;;;2.70;1.83;;;8.00;99.90;;;;;;5040438;28;20887;-47
2023/12/18 01:04:22;;;;;;;2.55;2.03;;;8.00;99.90;;;;;;5038515;28;20975;-47
2023/12/18 01:06:51;;;;;;;2.20;1.70;;;8.00;99.90;;;;;;5043717;28;20212;-49
2023/12/18 01:09:19;;;;;;;4.82;2.50;;;8.00;99.90;;;;;;5047410;28;20217;-50
2023/12/18 01:11:49;;;;;;;3.72;1.73;;;8.00;99.90;;;;;;5038549;28;20303;-49
2023/12/18 01:14:17;;;;;;;2.55;1.92;;;8.00;99.90;;;;;;5039918;28;20194;-49
2023/12/18 01:16:46;;;;;;;1.60;1.50;;;8.00;99.90;;;;;;5045104;28;20242;-48
2023/12/18 01:19:14;;;;;;;3.67;1.90;;;8.00;99.90;;;;;;5040403;28;20219;-49
2023/12/18 01:21:42;;;;;;;2.40;1.60;;;8.00;99.90;;;;;;5040520;28;20299;-45
2023/12/18 01:24:10;;;;;;;2.70;1.52;;;8.00;99.90;;;;;;5064896;28;20193;-47
2023/12/18 01:26:38;;;;;;;2.50;1.55;;;8.00;99.90;;;;;;5039322;28;20221;-47
2023/12/18 01:29:06;;;;;;;2.95;2.40;;;8.00;99.90;;;;;;5035886;28;20278;-46
2023/12/18 01:31:35;;;;;;;2.50;1.65;;;8.00;99.90;;;;;;5045910;28;20591;-51
2023/12/18 01:34:04;;;;;;;1.92;1.52;;;8.00;99.90;;;;;;5049777;28;20246;-48
2023/12/18 01:36:32;;;;;;;2.58;1.88;;;7.90;99.90;;;;;;5047098;28;20213;-47
2023/12/18 01:39:00;;;;;;;1.60;1.20;;;8.00;99.90;;;;;;5040716;28;20886;-48
2023/12/18 01:41:30;;;;;;;3.08;1.60;;;7.90;99.90;;;;;;5045304;28;20227;-47
2023/12/18 01:43:58;;;;;;;2.85;1.70;;;8.00;99.90;;;;;;5031610;28;20185;-48
2023/12/18 01:46:27;;;;;;;2.22;1.55;;;7.90;99.90;;;;;;5036828;28;20722;-46
2023/12/18 01:48:55;;;;;;;2.88;1.95;;;7.90;99.90;;;;;;5046166;28;20212;-46
2023/12/18 01:51:25;;;;;;;2.03;1.50;;;7.90;99.90;;;;;;5046782;28;20228;-49
2023/12/18 01:53:56;;;;;;;1.83;1.48;;;7.90;99.90;;;;;;5033686;28;20221;-48
2023/12/18 01:56:27;;;;;;;2.40;1.70;;;8.00;99.90;;;;;;5048494;28;20231;-45
2023/12/18 01:58:58;;;;;;;2.30;1.55;;;7.90;99.90;;;;;;5033120;28;20282;-48
2023/12/18 02:01:27;;;;;;;1.83;1.30;;;7.90;99.90;;;;;;5042411;28;20270;-50
2023/12/18 02:03:57;;;;;;;2.00;1.65;;;7.90;99.90;;;;;;5038547;28;20276;-49
2023/12/18 02:06:27;;;;;;;3.10;1.95;;;7.90;99.90;;;;;;5040904;28;20589;-48
2023/12/18 02:08:57;;;;;;;2.40;1.95;;;7.90;99.90;;;;;;5047068;28;20226;-48
2023/12/18 02:11:26;;;;;;;2.47;1.73;;;7.90;99.90;;;;;;5039835;28;20224;-46
2023/12/18 02:13:54;;;;;;;2.05;1.60;;;7.90;99.90;;;;;;5031956;28;20701;-47
2023/12/18 02:16:24;;;;;;;3.45;2.10;;;7.80;99.90;;;;;;5050907;28;20266;-47
2023/12/18 02:18:52;;;;;;;2.70;1.77;;;7.90;99.90;;;;;;5043176;28;20269;-49
2023/12/18 02:21:22;;;;;;;2.65;1.50;;;7.90;99.90;;;;;;5046210;28;20995;-47
2023/12/18 02:23:52;;;;;;;2.80;2.13;;;7.90;99.90;;;;;;5042948;28;20200;-47
2023/12/18 02:26:20;;;;;;;1.95;1.55;;;7.90;99.90;;;;;;5044639;28;20227;-48
2023/12/18 02:28:48;;;;;;;2.20;1.42;;;7.90;99.90;;;;;;5033717;28;20680;-49
2023/12/18 02:31:18;;;;;;;2.23;1.80;;;7.90;99.90;;;;;;5042819;28;20255;-50
2023/12/18 02:33:49;;;;;;;2.15;1.60;;;7.90;99.90;;;;;;5042620;28;20956;-49
2023/12/18 02:36:18;;;;;;;2.65;1.73;;;7.90;99.90;;;;;;5046120;28;20379;-47
2023/12/18 02:38:46;;;;;;;2.65;1.58;;;7.90;99.90;;;;;;5042772;28;20213;-47
2023/12/18 02:41:15;;;;;;;2.22;1.48;;;7.90;99.90;;;;;;5045062;28;20243;-49
2023/12/18 02:43:43;;;;;;;1.80;1.30;;;7.80;99.90;;;;;;5045350;28;20197;-48
2023/12/18 02:46:12;;;;;;;2.30;1.48;;;7.90;99.90;;;;;;5038839;28;20648;-49
2023/12/18 02:48:40;;;;;;;2.88;2.13;;;7.80;99.90;;;;;;5043376;28;20304;-48
2023/12/18 02:51:11;;;;;;;3.50;2.13;;;7.80;99.90;;;;;;5043316;28;20593;-48
2023/12/18 02:53:39;;;;;;;2.67;1.63;;;7.80;99.90;;;;;;5038100;28;20216;-51
2023/12/18 02:56:07;;;;;;;3.00;1.45;;;7.80;99.90;;;;;;5032059;28;20200;-49
2023/12/18 02:58:37;;;;;;;2.15;1.52;;;7.80;99.90;;;;;;5031496;28;20223;-49
2023/12/18 03:01:05;;;;;;;2.33;1.42;;;7.80;99.90;;;;;;5044933;28;20283;-49
2023/12/18 03:03:33;;;;;;;2.05;1.48;;;7.80;99.90;;;;;;5043894;28;20591;-46
2023/12/18 03:06:01;;;;;;;2.00;1.60;;;7.80;99.90;;;;;;5037328;28;20211;-47
2023/12/18 03:08:29;;;;;;;1.75;1.27;;;7.80;99.90;;;;;;5043618;28;20209;-50
2023/12/18 03:11:00;;;;;;;1.80;1.25;;;7.80;99.90;;;;;;5043872;28;20620;-47
2023/12/18 03:13:28;;;;;;;2.05;1.45;;;7.80;99.90;;;;;;5029854;28;20210;-48
2023/12/18 03:15:58;;;;;;;4.25;3.58;;;7.80;99.90;;;;;;5042229;28;20219;-49
2023/12/18 03:18:26;;;;;;;1.90;1.60;;;7.80;99.90;;;;;;5031551;28;20201;-50
2023/12/18 03:20:54;;;;;;;2.25;1.90;;;7.80;99.90;;;;;;5038238;28;20200;-48
2023/12/18 03:23:22;;;;;;;2.25;1.40;;;7.80;99.90;;;;;;5036307;28;20208;-49
2023/12/18 03:25:50;;;;;;;1.92;1.52;;;7.80;99.90;;;;;;5044434;28;20198;-49
2023/12/18 03:28:18;;;;;;;2.90;1.67;;;7.80;99.90;;;;;;5029502;28;20247;-50
2023/12/18 03:30:46;;;;;;;1.77;1.20;;;7.80;99.90;;;;;;5037071;28;20203;-48
2023/12/18 03:33:16;;;;;;;2.30;1.50;;;7.80;99.90;;;;;;5045010;28;20220;-49
2023/12/18 03:35:44;;;;;;;2.45;1.48;;;7.80;99.90;;;;;;5047406;28;20219;-49
2023/12/18 03:38:13;;;;;;;3.17;1.67;;;7.70;99.90;;;;;;5034482;28;20210;-48
2023/12/18 03:40:41;;;;;;;1.83;1.25;;;7.80;99.90;;;;;;5050066;28;20200;-48
2023/12/18 03:43:09;;;;;;;2.40;1.63;;;7.70;99.90;;;;;;5034227;28;20256;-50
2023/12/18 03:45:37;;;;;;;2.40;1.70;;;7.70;99.90;;;;;;5046411;28;20629;-47
2023/12/18 03:48:06;;;;;;;2.53;1.70;;;7.70;99.90;;;;;;5041838;28;20229;-49
2023/12/18 03:50:36;;;;;;;1.52;1.15;;;7.70;99.90;;;;;;5047828;28;20203;-49
2023/12/18 03:53:04;;;;;;;2.00;1.35;;;7.70;99.90;;;;;;5040272;28;20696;-48
2023/12/18 03:55:34;;;;;;;2.08;1.60;;;7.70;99.90;;;;;;5049893;28;20216;-48
2023/12/18 03:58:02;;;;;;;2.63;1.50;;;7.70;99.90;;;;;;5029886;28;20267;-50
2023/12/18 04:00:30;;;;;;;1.75;1.20;;;7.70;99.90;;;;;;5037068;28;20221;-48
2023/12/18 04:02:58;;;;;;;2.22;1.33;;;7.70;99.90;;;;;;5035481;28;20228;-49
2023/12/18 04:05:28;;;;;;;2.10;1.27;;;7.70;99.90;;;;;;5029337;28;20191;-50
2023/12/18 04:07:57;;;;;;;2.33;1.83;;;7.70;99.90;;;;;;5039760;28;20716;-47
2023/12/18 04:10:25;;;;;;;2.58;2.22;;;7.70;99.90;;;;;;5049790;28;20228;-46
2023/12/18 04:12:53;;;;;;;2.35;1.42;;;7.70;99.90;;;;;;5039040;28;20232;-49
2023/12/18 04:15:21;;;;;;;2.58;1.52;;;7.70;99.90;;;;;;5048690;28;20209;-48
2023/12/18 04:17:50;;;;;;;1.80;1.30;;;7.70;99.90;;;;;;5047245;28;20686;-50
2023/12/18 04:20:18;;;;;;;1.70;1.15;;;7.70;99.90;;;;;;5041241;28;20223;-49
2023/12/18 04:22:46;;;;;;;1.73;1.45;;;7.70;99.90;;;;;;5040908;28;20289;-50
2023/12/18 04:25:16;;;;;;;2.15;1.70;;;7.70;99.90;;;;;;5049552;28;20196;-48
2023/12/18 04:27:44;;;;;;;3.90;1.63;;;7.70;99.90;;;;;;5040317;28;20415;-48
2023/12/18 04:30:13;;;;;;;1.85;1.33;;;7.70;99.90;;;;;;5045516;28;20211;-48
2023/12/18 04:32:41;;;;;;;2.22;1.30;;;7.70;99.90;;;;;;5037386;28;20226;-49
2023/12/18 04:35:09;;;;;;;2.63;1.85;;;7.70;99.90;;;;;;5046165;28;20213;-47
2023/12/18 04:37:37;;;;;;;2.20;1.30;;;7.70;99.90;;;;;;5040646;28;20267;-49
2023/12/18 04:40:07;;;;;;;1.40;1.05;;;7.70;99.90;;;;;;5050380;28;20218;-49
2023/12/18 04:42:36;;;;;;;1.70;1.13;;;7.70;99.90;;;;;;5038941;28;20217;-49
2023/12/18 04:45:04;;;;;;;2.15;1.33;;;7.70;99.90;;;;;;5033592;28;20261;-48
2023/12/18 04:47:33;;;;;;;2.00;1.40;;;7.70;99.90;;;;;;5047681;28;20208;-50
2023/12/18 04:50:01;;;;;;;1.90;1.15;;;7.70;99.90;;;;;;5045374;28;20254;-48
2023/12/18 04:52:29;;;;;;;1.35;1.10;;;7.70;99.90;;;;;;5034723;28;20228;-49
2023/12/18 04:54:57;;;;;;;1.85;1.30;;;7.70;99.90;;;;;;5049573;28;20759;-47
2023/12/18 04:57:25;;;;;;;3.25;1.20;;;7.70;99.90;;;;;;5040119;28;20223;-50
2023/12/18 04:59:55;;;;;;;2.17;1.23;;;7.70;99.90;;;;;;5044957;28;20589;-48
2023/12/18 05:02:23;;;;;;;1.80;1.48;;;7.70;99.90;;;;;;5048547;28;20216;-47
2023/12/18 05:04:51;;;;;;;2.25;1.63;;;7.70;99.90;;;;;;5048861;28;20202;-48
2023/12/18 05:07:19;;;;;;;2.45;1.15;;;7.70;99.90;;;;;;5034266;28;20218;-49
2023/12/18 05:09:47;;;;;;;2.00;1.30;;;7.60;99.90;;;;;;5046964;28;20240;-47
2023/12/18 05:12:16;;;;;;;2.30;1.48;;;7.60;99.90;;;;;;5036314;28;20219;-47
2023/12/18 05:14:44;;;;;;;1.50;1.10;;;7.60;99.90;;;;;;5031721;28;20219;-49
2023/12/18 05:17:14;;;;;;;2.80;1.80;;;7.60;99.90;;;;;;5033750;28;20249;-48
2023/12/18 05:19:42;;;;;;;2.17;1.40;;;7.60;99.80;;;;;;5049338;28;20228;-48
2023/12/18 05:22:10;;;;;;;2.13;1.27;;;7.60;99.90;;;;;;5029180;28;20659;-48
2023/12/18 05:24:38;;;;;;;2.13;1.30;;;7.60;99.90;;;;;;5045602;28;20668;-47
2023/12/18 05:27:06;;;;;;;1.83;1.30;;;7.60;99.90;;;;;;5035955;28;20338;-47
2023/12/18 05:29:34;;;;;;;2.05;1.35;;;7.60;99.90;;;;;;5029922;28;20213;-49
2023/12/18 05:32:02;;;;;;;3.80;1.50;;;7.60;99.90;;;;;;5038000;28;20709;-48
2023/12/18 05:34:31;;;;;;;2.40;1.25;;;7.60;99.90;;;;;;5029294;28;20209;-50
2023/12/18 05:37:02;;;;;;;2.47;1.10;;;7.60;99.90;;;;;;5035106;28;20282;-48
2023/12/18 05:39:30;;;;;;;4.32;1.10;;;7.60;99.90;;;;;;5035272;28;20290;-49
2023/12/18 05:41:58;;;;;;;2.20;1.60;;;7.60;99.90;;;;;;5044964;28;20571;-49
2023/12/18 05:44:26;;;;;;;2.03;1.50;;;7.60;99.90;;;;;;5047126;28;20272;-48
2023/12/18 05:46:54;;;;;;;1.65;1.40;;;7.60;99.90;;;;;;5037559;28;20603;-48
2023/12/18 05:49:22;;;;;;;2.30;1.40;;;7.60;99.90;;;;;;5047775;28;20217;-49
2023/12/18 05:51:51;;;;;;;1.80;1.30;;;7.60;99.90;;;;;;5034557;28;20330;-48
2023/12/18 05:54:19;;;;;;;3.60;1.83;;;7.60;99.90;;;;;;5046286;28;20572;-48
2023/12/18 05:56:47;;;;;;;3.20;1.60;;;7.60;99.90;;;;;;5041024;28;20205;-51
2023/12/18 05:59:15;;;;;;;2.50;1.40;;;7.60;99.90;;;;;;5042109;28;20290;-51
2023/12/18 06:01:43;;;;;;;1.83;1.50;;;7.60;99.90;;;;;;5037725;28;20253;-48
2023/12/18 06:04:12;;;;;;;1.90;1.50;;;7.60;99.90;;;;;;5041571;28;20241;-51
2023/12/18 06:06:40;;;;;;;2.00;1.52;;;7.60;99.90;;;;;;5033401;28;20291;-50
2023/12/18 06:09:09;;;;;;;2.10;1.40;;;7.50;99.80;;;;;;5044274;28;21040;-49
2023/12/18 06:11:38;;;;;;;2.60;1.30;;;7.50;99.90;;;;;;5044532;28;20222;-52
2023/12/18 06:14:06;;;;;;;1.70;1.30;;;7.50;99.90;;;;;;5032698;28;20390;-47
2023/12/18 06:16:34;;;;;;;2.33;1.70;;;7.50;99.90;;;;;;5047435;28;20544;-49
2023/12/18 06:19:02;;;;;;;1.95;1.40;;;7.50;99.90;;;;;;5052690;28;20223;-48
2023/12/18 06:21:30;;;;;;;2.30;1.40;;;7.50;99.90;;;;;;5048772;28;20224;-49
2023/12/18 06:23:58;;;;;;;1.92;1.63;;;7.50;99.90;;;;;;5035407;28;20181;-47
2023/12/18 06:26:27;;;;;;;2.60;1.30;;;7.60;99.90;;;;;;5038849;28;20608;-48
2023/12/18 06:28:55;;;;;;;1.73;1.25;;;7.50;99.90;;;;;;5046963;28;20227;-47
2023/12/18 06:31:24;;;;;;;1.60;1.13;;;7.50;99.90;;;;;;5045842;28;20312;-45
2023/12/18 06:33:52;;;;;;;2.47;1.55;;;7.50;99.90;;;;;;5044516;28;20448;-47
2023/12/18 06:36:20;;;;;;;2.38;1.50;;;7.50;99.90;;;;;;5043756;28;20229;-50
2023/12/18 06:38:49;;;;;;;1.90;1.13;;;7.50;99.90;;;;;;5042353;28;20211;-48
2023/12/18 06:41:17;;;;;;;2.65;1.40;;;7.50;99.90;;;;;;5033197;28;20271;-47
2023/12/18 06:43:46;;;;;;;3.50;1.58;;;7.50;99.90;;;;;;5038721;28;20239;-48
2023/12/18 06:46:15;;;;;;;2.55;1.42;;;7.50;99.90;;;;;;5043763;28;20189;-48
2023/12/18 06:48:43;;;;;;;2.10;1.55;;;7.50;99.90;;;;;;5037055;28;20236;-49
2023/12/18 06:51:11;;;;;;;2.83;1.70;;;7.50;99.90;;;;;;5043182;28;20659;-47
2023/12/18 06:53:39;;;;;;;1.88;1.20;;;7.50;99.90;;;;;;5042195;28;20746;-47
2023/12/18 06:56:08;;;;;;;2.95;1.92;;;7.50;99.90;;;;;;5041198;28;20215;-47
2023/12/18 06:58:36;;;;;;;2.65;2.25;;;7.50;99.90;;;;;;5035079;28;20215;-47
2023/12/18 07:01:05;;;;;;;3.33;2.22;;;7.50;99.90;;;;;;5044439;28;20204;-48
2023/12/18 07:03:34;;;;;;;4.18;2.28;;;7.50;99.70;;;;;;5052032;28;20209;-47
2023/12/18 07:06:02;;;;;;;2.83;2.28;;;7.40;99.90;;;;;;5045820;28;20221;-47
2023/12/18 07:08:30;;;;;;;2.22;1.52;;;7.40;99.80;;;;;;5046818;28;20234;-47
2023/12/18 07:10:58;;;;;;;2.30;1.60;;;7.40;99.90;;;;;;5049085;28;20187;-48
2023/12/18 07:13:27;;;;;;;2.13;1.60;;;7.40;99.90;;;;;;5029888;28;20253;-52
2023/12/18 07:15:55;;;;;;;3.10;1.55;;;7.40;99.90;;;;;;5038496;28;20215;-49
2023/12/18 07:18:24;;;;;;;3.00;1.85;;;7.40;99.90;;;;;;5043314;28;20642;-49
2023/12/18 07:20:56;;;;;;;2.42;1.30;;;7.40;99.90;;;;;;5040532;28;20293;-46
2023/12/18 07:23:24;;;;;;;3.50;1.48;;;7.40;99.90;;;;;;5039160;28;20268;-47
2023/12/18 07:25:52;;;;;;;3.38;1.98;;;7.40;99.90;;;;;;5045363;28;20194;-48
2023/12/18 07:28:23;;;;;;;2.97;2.03;;;7.40;99.90;;;;;;5030264;28;20584;-47
2023/12/18 07:30:51;;;;;;;2.88;1.50;;;7.40;99.80;;;;;;5040398;28;20206;-47
2023/12/18 07:33:20;;;;;;;3.08;1.65;;;7.40;99.90;;;;;;5040787;28;20650;-49
2023/12/18 07:35:52;;;;;;;2.60;1.83;;;7.40;99.90;;;;;;5046322;28;20236;-48
2023/12/18 07:38:20;;;;;;;2.78;2.22;;;7.40;99.90;;;;;;5040018;28;20257;-48
2023/12/18 07:40:49;;;;;;;2.25;1.67;;;7.40;99.80;;;;;;5045088;28;20193;-47
2023/12/18 07:43:17;;;;;;;2.72;1.80;;;7.40;99.80;;;;;;5035946;28;20448;-48
2023/12/18 07:45:45;;;;;;;2.35;1.60;;;7.40;99.90;;;;;;5039356;28;20201;-47
2023/12/18 07:48:13;;;;;;;2.30;1.40;;;7.40;99.90;;;;;;5035838;28;20216;-46
2023/12/18 07:50:41;;;;;;;2.53;1.85;;;7.30;99.90;;;;;;5040080;28;20387;-50
2023/12/18 07:53:11;;;;;;;3.58;1.95;;;7.40;99.90;;;;;;5033634;28;20322;-49
2023/12/18 07:55:39;;;;;;;2.55;1.70;;;7.40;99.90;;;;;;5050073;28;20268;-45
2023/12/18 07:58:07;;;;;;;3.05;1.70;;;7.40;99.90;;;;;;5035595;28;20245;-47
2023/12/18 08:00:35;;;;;;;2.42;1.38;;;7.30;99.90;;;;;;5043494;28;20189;-47
2023/12/18 08:03:04;;;;;;;2.65;1.30;;;7.40;99.90;;;;;;5047316;28;20288;-47
2023/12/18 08:05:32;;;;;;;2.70;1.92;;;7.30;99.90;;;;;;5047079;28;20654;-47
2023/12/18 08:08:00;;;;;;;2.92;1.95;;;7.30;99.90;;;;;;5038341;28;20311;-46
2023/12/18 08:10:30;;;;;;;2.25;1.33;;;7.30;99.90;;;;;;5041774;28;20221;-47
2023/12/18 08:12:58;;;;;;;2.60;1.67;;;7.30;99.80;;;;;;5038412;28;20309;-48
2023/12/18 08:15:26;;;;;;;2.90;2.47;;;7.30;99.90;;;;;;5043717;28;20192;-49
2023/12/18 08:17:54;;;;;;;2.88;1.60;;;7.30;99.60;;;;;;5035091;28;20217;-48
2023/12/18 08:20:22;;;;;;;4.13;2.75;;;7.30;99.80;;;;;;5039921;28;20710;-49
2023/12/18 08:22:50;;;;;;;4.47;2.53;;;7.30;99.80;;;;;;5040952;28;20235;-49
2023/12/18 08:25:20;;;;;;;3.50;2.30;;;7.30;99.80;;;;;;5040283;28;20202;-49
2023/12/18 08:27:50;;;;;;;3.75;2.33;;;7.30;99.90;;;;;;5039883;28;20231;-49
2023/12/18 08:30:18;;;;;;;2.38;1.67;;;7.30;99.90;;;;;;5050374;28;20764;-47
2023/12/18 08:32:46;;;;;;;2.25;1.60;;;7.30;99.90;;;;;;5041139;28;20336;-48
2023/12/18 08:35:17;;;;;;;3.65;2.83;;;7.30;99.90;;;;;;5035222;28;20321;-47
2023/12/18 08:37:45;;;;;;;2.72;2.05;;;7.30;99.90;;;;;;5049016;28;20321;-47
2023/12/18 08:40:13;;;;;;;3.17;2.03;;;7.30;99.90;;;;;;5046941;28;20227;-46
2023/12/18 08:42:41;;;;;;;3.72;2.30;;;7.30;99.90;;;;;;5038311;28;20222;-47
2023/12/18 08:45:14;;;;;;;3.17;2.10;;;7.30;99.90;;;;;;5044539;28;20256;-45
2023/12/18 08:47:42;;;;;;;2.92;1.92;;;7.30;99.90;;;;;;5045631;28;20230;-49
2023/12/18 08:50:11;;;;;;;3.53;2.00;;;7.30;99.90;;;;;;5039802;28;20271;-48
2023/12/18 08:52:39;;;;;;;3.00;1.75;;;7.30;99.90;;;;;;5040007;28;20216;-49
2023/12/18 08:55:08;;;;;;;2.53;1.70;;;7.30;99.90;;;;;;5048150;28;20225;-47
2023/12/18 08:57:36;;;;;;;4.50;2.25;;;7.20;99.90;;;;;;5032743;28;20217;-48
2023/12/18 09:00:06;;;;;;;4.05;2.75;;;7.30;99.90;;;;;;5042845;28;20310;-48
2023/12/18 09:02:36;;;;;;;5.03;2.92;;;7.30;99.90;;;;;;5050037;28;20309;-46
2023/12/18 09:05:04;;;;;;;3.35;2.00;;;7.20;99.90;;;;;;5049698;28;20271;-46
2023/12/18 09:07:32;;;;;;;3.90;2.75;;;7.30;99.90;;;;;;5035637;28;20233;-46
2023/12/18 09:10:00;;;;;;;2.50;2.17;;;7.20;99.90;;;;;;5043701;28;20225;-49
2023/12/18 09:12:28;;;;;;;3.45;2.17;;;7.30;99.90;;;;;;5041955;28;20214;-46
2023/12/18 09:15:02;;;;;;;3.15;2.38;;;7.20;99.90;;;;;;5042841;28;20224;-46
2023/12/18 09:17:30;;;;;;;2.13;1.77;;;7.30;99.90;;;;;;5046379;28;20221;-44
2023/12/18 09:20:00;;;;;;;4.45;2.38;;;7.30;99.90;;;;;;5047950;28;20217;-48
2023/12/18 09:22:28;;;;;;;3.38;2.17;;;7.30;99.90;;;;;;5049151;28;20302;-48
2023/12/18 09:24:56;;;;;;;2.67;1.88;;;7.20;99.90;;;;;;5051191;28;20237;-47
2023/12/18 09:27:24;;;;;;;4.28;2.55;;;7.30;99.90;;;;;;5034730;28;20205;-48
2023/12/18 09:29:52;;;;;;;2.67;1.70;;;7.30;99.90;;;;;;5045673;28;20307;-46
2023/12/18 09:32:20;;;;;;;3.38;2.10;;;7.30;99.90;;;;;;5034960;28;20287;-46
2023/12/18 09:34:48;;;;;;;2.65;1.88;;;7.30;99.90;;;;;;5043198;28;20264;-47
2023/12/18 09:37:18;;;;;;;3.30;2.35;;;7.30;99.90;;;;;;5031772;28;20777;-48
2023/12/18 09:39:46;;;;;;;3.92;2.15;;;7.20;99.80;;;;;;5037550;28;20613;-48
2023/12/18 09:42:14;;;;;;;2.33;1.65;;;7.30;99.90;;;;;;5041596;28;20217;-48
2023/12/18 09:44:48;;;;;;;2.95;1.92;;;7.30;99.80;;;;;;5041224;28;20202;-48
2023/12/18 09:47:17;;;;;;;3.78;2.33;;;7.30;99.80;;;;;;5047533;28;20247;-48
2023/12/18 09:49:45;;;;;;;3.65;2.75;;;7.30;99.80;;;;;;5042519;28;20229;-47
2023/12/18 09:52:15;;;;;;;2.95;2.05;;;7.30;99.80;;;;;;5037724;28;20289;-49
2023/12/18 09:54:45;;;;;;;3.38;2.05;;;7.30;99.80;;;;;;5044693;28;20197;-48
2023/12/18 09:57:18;;;;;;;4.38;2.60;;;7.30;99.80;;;;;;5041980;28;20237;-50
2023/12/18 09:59:47;;;;;;;2.75;2.25;;;7.30;99.80;;;;;;5042799;28;20300;-48
2023/12/18 10:02:16;;;;;;;2.95;2.08;;;7.30;99.80;;;;;;5035941;28;20304;-48
2023/12/18 10:04:44;;;;;;;3.33;2.63;;;7.30;99.80;;;;;;5042020;28;20577;-46
2023/12/18 10:07:12;;;;;;;3.60;2.13;;;7.30;99.80;;;;;;5034001;28;20213;-46
2023/12/18 10:09:49;;;;;;;2.40;1.88;;;7.30;99.80;;;;;;5044352;28;20212;-46
2023/12/18 10:12:20;;;;;;;2.45;2.25;;;7.30;99.80;;;;;;5040527;28;20479;-45
2023/12/18 10:14:50;;;;;;;2.70;2.05;;;7.20;99.80;;;;;;5046666;28;20212;-47
2023/12/18 10:17:19;;;;;;;2.97;1.80;;;7.30;99.80;;;;;;5041578;28;20223;-44
2023/12/18 10:19:47;;;;;;;4.90;2.35;;;7.20;99.80;;;;;;5042549;28;20733;-46
2023/12/18 10:22:17;;;;;;;2.75;2.10;;;7.30;99.80;;;;;;5045916;28;20240;-46
2023/12/18 10:24:47;;;;;;;3.05;2.10;;;7.30;99.80;;;;;;5044871;28;20186;-48
2023/12/18 10:27:15;;;;;;;3.42;2.33;;;7.20;99.80;;;;;;5048552;28;20226;-45
2023/12/18 10:29:43;;;;;;;5.03;2.65;;;7.20;99.80;;;;;;5042899;28;20209;-49
2023/12/18 10:32:12;;;;;;;4.78;3.10;;;7.20;99.70;;;;;;5050017;28;20230;-47
2023/12/18 10:34:44;;;;;;;3.70;2.65;;;7.20;99.80;;;;;;5045929;28;20199;-46
2023/12/18 10:37:13;;;;;;;3.75;2.78;;;7.20;99.70;;;;;;5044575;28;20217;-48
2023/12/18 10:39:42;;;;;;;4.57;2.45;;;7.20;99.60;;;;;;5042619;28;20218;-46
2023/12/18 10:42:20;;;;;;;2.25;2.00;;;7.20;99.70;;;;;;5030175;28;20270;-47
2023/12/18 10:44:48;;;;;;;3.08;2.20;;;7.20;99.80;;;;;;5051312;28;20228;-45
2023/12/18 10:47:17;;;;;;;4.15;2.58;;;7.20;99.80;;;;;;5046279;28;20219;-48
2023/12/18 10:49:46;;;;;;;3.53;2.80;;;7.20;99.60;;;;;;5048499;28;20712;-47
2023/12/18 10:52:17;;;;;;;4.60;1.88;;;7.20;99.80;;;;;;5046857;28;20218;-49
2023/12/18 10:54:50;;;;;;;3.58;2.67;;;7.20;99.80;;;;;;5037981;28;20252;-50
2023/12/18 10:57:23;;;;;;;5.82;2.75;;;7.20;99.80;;;;;;5035913;28;20224;-49
2023/12/18 10:59:53;;;;;;;7.85;3.67;;;7.20;99.80;;;;;;5046198;28;20214;-48
2023/12/18 11:02:22;;;;;;;3.42;2.50;;;7.20;99.70;;;;;;5041209;28;20221;-48
2023/12/18 11:04:51;;;;;;;2.10;1.85;;;7.10;99.90;;;;;;5049536;28;20202;-47
2023/12/18 11:07:20;;;;;;;2.33;1.80;;;7.20;99.90;;;;;;5035983;28;20636;-46
2023/12/18 11:09:49;;;;;;;3.63;2.60;;;7.20;99.90;;;;;;5049453;28;20225;-46
2023/12/18 11:12:21;;;;;;;3.17;2.42;;;7.20;99.90;;;;;;5041867;28;20600;-47
2023/12/18 11:15:08;;;;;;;3.65;1.88;;;7.10;99.90;;;;;;5038020;28;20582;-45
2023/12/18 11:17:45;;;;;;;3.72;2.60;;;7.10;99.90;;;;;;5043508;28;20243;-47
2023/12/18 11:20:21;;;;;;;3.28;2.40;;;7.10;99.90;;;;;;5038963;28;20225;-48
2023/12/18 11:22:54;;;;;;;3.28;2.40;;;7.10;99.90;;;;;;5043115;28;20220;-48
2023/12/18 11:25:28;;;;;;;3.33;2.20;;;7.10;99.90;;;;;;5034425;28;20325;-46
2023/12/18 11:28:01;;;;;;;2.70;1.70;;;7.10;99.90;;;;;;5043460;28;20354;-46
2023/12/18 11:30:31;;;;;;;2.35;1.75;;;7.10;99.90;;;;;;5041647;28;20303;-50
2023/12/18 11:33:03;;;;;;;2.80;1.98;;;7.10;99.90;;;;;;5043887;28;20225;-47
2023/12/18 11:35:35;;;;;;;2.97;2.30;;;7.20;99.90;;;;;;5041461;28;20278;-44
2023/12/18 11:38:06;;;;;;;3.00;2.10;;;7.10;99.90;;;;;;5040023;28;20212;-49
2023/12/18 11:40:40;;;;;;;3.88;2.15;;;7.10;99.90;;;;;;5040565;28;20679;-48
2023/12/18 11:43:11;;;;;;;3.70;2.80;;;7.10;99.90;;;;;;5042614;28;20252;-47
2023/12/18 11:45:42;;;;;;;4.25;3.10;;;7.10;99.90;;;;;;5040554;28;20193;-47
2023/12/18 11:48:15;;;;;;;3.60;2.40;;;7.10;99.90;;;;;;5033862;28;20929;-48
2023/12/18 11:50:44;;;;;;;2.80;2.10;;;7.10;99.90;;;;;;5035353;28;20205;-48
2023/12/18 11:53:31;;;;;;;3.67;2.53;;;7.10;99.90;;;;;;5036494;28;20305;-45
2023/12/18 11:55:59;;;;;;;3.88;2.47;;;7.10;99.90;;;;;;5052742;28;20232;-45
2023/12/18 11:58:29;;;;;;;2.90;2.28;;;7.10;99.90;;;;;;5041997;28;20730;-45
2023/12/18 12:00:58;;;;;;;3.05;2.05;;;7.10;99.90;;;;;;5043614;28;20205;-47
2023/12/18 12:03:27;;;;;;;3.67;2.42;;;7.10;99.90;;;;;;5040324;28;20711;-48
2023/12/18 12:05:58;;;;;;;3.90;2.50;;;7.10;99.90;;;;;;5047521;28;20300;-47
2023/12/18 12:08:26;;;;;;;4.07;2.35;;;7.10;99.90;;;;;;5044510;28;20212;-46
2023/12/18 12:10:57;;;;;;;4.03;2.60;;;7.10;99.90;;;;;;5050089;28;20201;-48
2023/12/18 12:13:26;;;;;;;3.45;2.20;;;7.10;99.90;;;;;;5039976;28;20216;-45
2023/12/18 12:15:57;;;;;;;4.70;2.63;;;7.10;99.90;;;;;;5043111;28;20203;-47
2023/12/18 12:18:26;;;;;;;2.85;2.20;;;7.10;99.90;;;;;;5046251;28;20226;-47
2023/12/18 12:20:55;;;;;;;3.38;2.67;;;7.10;99.90;;;;;;5039225;28;20200;-47
2023/12/18 12:23:25;;;;;;;4.95;3.60;;;7.20;99.90;;;;;;5042707;28;20225;-49
2023/12/18 12:25:57;;;;;;;3.15;2.35;;;7.10;99.90;;;;;;5047120;28;20198;-46
2023/12/18 12:28:28;;;;;;;4.40;2.88;;;7.10;99.90;;;;;;5045921;28;20690;-45
2023/12/18 12:30:57;;;;;;;4.10;2.90;;;7.10;99.90;;;;;;5042115;28;20404;-46
2023/12/18 12:33:39;;;;;;;3.22;2.70;;;7.10;99.90;;;;;;5044749;28;20228;-49
2023/12/18 12:36:08;;;;;;;4.25;2.75;;;7.10;99.90;;;;;;5042801;28;20196;-48
2023/12/18 12:38:36;;;;;;;2.78;2.33;;;7.10;99.90;;;;;;5042723;28;20869;-50
2023/12/18 12:41:05;;;;;;;3.25;2.63;;;7.10;99.90;;;;;;5044839;28;20205;-46
2023/12/18 12:43:34;;;;;;;3.50;2.67;;;7.10;99.90;;;;;;5036663;28;20204;-47
2023/12/18 12:46:06;;;;;;;2.95;2.40;;;7.10;99.90;;;;;;5039307;28;20192;-47
2023/12/18 12:48:34;;;;;;;3.13;2.55;;;7.10;99.90;;;;;;5033888;28;20255;-47
2023/12/18 12:51:07;;;;;;;3.75;2.70;;;7.10;99.90;;;;;;5035025;28;20212;-48
2023/12/18 12:53:35;;;;;;;3.85;2.83;;;7.10;99.90;;;;;;5038493;28;20613;-47
2023/12/18 12:56:07;;;;;;;4.45;3.15;;;7.10;99.90;;;;;;5051462;28;20180;-47
2023/12/18 12:58:38;;;;;;;3.38;2.42;;;7.10;99.90;;;;;;5045466;28;20305;-46
2023/12/18 13:01:08;;;;;;;3.30;2.70;;;7.10;99.90;;;;;;5054868;28;20189;-48
2023/12/18 13:03:36;;;;;;;4.65;2.30;;;7.10;99.90;;;;;;5055993;28;20225;-47
2023/12/18 13:06:05;;;;;;;3.78;2.90;;;7.10;99.90;;;;;;5054444;28;20200;-46
2023/12/18 13:08:34;;;;;;;3.10;2.75;;;7.10;99.90;;;;;;5046363;28;20217;-46